createdAt,value
2023-04-15T17:28:57.451Z,100727.34
2023-04-15T17:31:23.811Z,100729.75
2023-04-15T17:34:00.129Z,100734.06
2023-04-15T17:36:33.139Z,100742.81
2023-04-15T17:38:59.435Z,100731.31
2023-04-15T17:41:25.712Z,100746.28
2023-04-15T17:43:51.966Z,100744.47
2023-04-15T17:46:18.296Z,100743.69
2023-04-15T17:48:45.673Z,100749.00
2023-04-15T17:51:11.986Z,100754.19
2023-04-15T17:53:38.355Z,100756.81
2023-04-15T17:56:05.020Z,100753.38
2023-04-15T17:58:31.342Z,100756.81
2023-04-15T18:00:57.649Z,100762.94
2023-04-15T18:03:24.052Z,100762.94
2023-04-15T18:05:50.498Z,100768.22
2023-04-15T18:08:16.794Z,100772.66
2023-04-15T18:10:45.151Z,100777.09
2023-04-15T18:13:11.406Z,100783.25
2023-04-15T18:15:37.775Z,100777.91
2023-04-15T18:18:04.304Z,100788.56
2023-04-15T18:20:30.658Z,100793.00
2023-04-15T18:22:56.908Z,100786.75
2023-04-15T18:25:23.241Z,100798.16
2023-04-15T18:27:49.558Z,100796.53
2023-04-15T18:30:15.849Z,100807.09
2023-04-15T18:32:43.444Z,100807.19
2023-04-15T18:35:09.900Z,100807.09
2023-04-15T18:37:36.219Z,100809.78
2023-04-15T18:40:02.611Z,100812.63
2023-04-15T18:42:28.918Z,100822.31
2023-04-15T18:44:55.313Z,100817.84
2023-04-15T18:47:21.623Z,100823.22
2023-04-15T18:49:47.901Z,100829.38
2023-04-15T18:52:14.242Z,61758.41
2023-04-15T18:54:40.642Z,61758.41
2023-04-15T18:57:07.041Z,61758.41
2023-04-15T18:59:33.929Z,61758.41
2023-04-15T19:02:00.597Z,61758.41
2023-04-15T19:04:27.271Z,61758.41
2023-04-15T19:06:53.632Z,61758.41
2023-04-15T19:09:19.936Z,61758.41
2023-04-15T19:11:46.238Z,61758.41
2023-04-15T19:14:12.563Z,61758.41
2023-04-15T19:16:38.932Z,61758.41
2023-04-15T19:19:05.994Z,61758.41
2023-04-15T19:21:32.538Z,61758.41
2023-04-15T19:23:59.920Z,61758.41
2023-04-15T19:26:26.221Z,61758.41
2023-04-15T19:28:52.541Z,61758.41
2023-04-15T19:31:19.829Z,61758.41
2023-04-15T19:33:46.182Z,61758.41
2023-04-15T19:36:12.473Z,61758.41
2023-04-15T19:38:38.782Z,61758.41
2023-04-15T19:41:05.095Z,61758.41
2023-04-15T19:43:32.597Z,61758.41
2023-04-15T19:45:59.234Z,61758.41
2023-04-15T19:48:25.599Z,61758.41
2023-04-15T19:50:51.914Z,61758.41
2023-04-15T19:53:18.237Z,61758.41
2023-04-15T19:55:44.552Z,61758.41
2023-04-15T19:58:10.939Z,61758.41
2023-04-15T20:00:37.280Z,61758.41
2023-04-15T20:03:04.397Z,61758.41
2023-04-15T20:05:30.817Z,61758.41
2023-04-15T20:07:59.313Z,61758.41
2023-04-15T20:10:26.168Z,61758.41
2023-04-15T20:12:53.393Z,61758.41
2023-04-15T20:15:20.059Z,61758.41
2023-04-15T20:17:46.410Z,61758.41
2023-04-15T20:20:12.876Z,61758.41
2023-04-15T20:22:39.207Z,61758.41
2023-04-15T20:25:06.010Z,61758.41
2023-04-15T20:27:32.304Z,61758.41
2023-04-15T20:29:58.600Z,61758.41
2023-04-15T20:32:24.985Z,61758.41
2023-04-15T20:34:51.362Z,61758.41
2023-04-15T20:37:17.769Z,61758.41
2023-04-15T20:39:44.168Z,61758.41
2023-04-15T20:42:10.469Z,61758.41
2023-04-15T20:44:37.635Z,61758.41
2023-04-15T20:47:05.332Z,61758.41
2023-04-15T20:49:35.360Z,61758.41
2023-04-15T20:52:02.306Z,61758.41
2023-04-15T20:54:28.722Z,61758.41
2023-04-15T20:56:55.850Z,61758.41
2023-04-15T20:59:22.141Z,61758.41
2023-04-15T21:01:48.458Z,61758.41
2023-04-15T21:04:14.794Z,61758.41
2023-04-15T21:06:41.070Z,61758.41
2023-04-15T21:09:07.578Z,61758.41
2023-04-15T21:11:53.121Z,61758.41
2023-04-15T21:14:20.284Z,61758.41
2023-04-15T21:16:46.787Z,61758.41
2023-04-15T21:19:13.160Z,61758.41
2023-04-15T21:21:39.517Z,61758.41
2023-04-15T21:24:05.928Z,61758.41
2023-04-15T21:26:32.345Z,61758.41
2023-04-15T21:28:58.633Z,61758.41
2023-04-15T21:31:25.247Z,61758.41
2023-04-15T21:33:51.586Z,61758.41
2023-04-15T21:36:17.885Z,61758.41
2023-04-15T21:38:44.153Z,61758.41
